Time;durP1;ratioP1;P1;durP2;ratioP2;P2;SDS_P1;SDS_P2;PMS_P1;PMS_P2;Temp;Humidity;BMP_temperature;BMP_pressure;BME280_temperature;BME280_humidity;BME280_pressure;Samples;Min_cycle;Max_cycle;Signal;HPM_P1;HPM_P2
2021/09/08 00:00:59;;;;;;;4.90;4.40;;;13.60;99.90;;;;;;6105780;23;20381;-92
2021/09/08 00:06:40;;;;;;;3.30;3.00;;;13.50;99.90;;;;;;6155103;23;20371;-91
2021/09/08 00:09:25;;;;;;;2.90;2.70;;;13.50;99.90;;;;;;6147927;23;20389;-85
2021/09/08 00:12:09;;;;;;;3.20;2.90;;;13.40;99.90;;;;;;6129281;23;20369;-87
2021/09/08 00:14:54;;;;;;;3.30;3.00;;;13.40;99.90;;;;;;6110783;23;20377;-91
2021/09/08 00:17:39;;;;;;;4.00;3.70;;;13.40;99.90;;;;;;6062312;23;20361;-87
2021/09/08 00:20:34;;;;;;;3.13;2.85;;;13.40;99.90;;;;;;6104743;23;20399;-85
2021/09/08 00:23:19;;;;;;;2.80;2.60;;;13.30;99.90;;;;;;6102743;23;20970;-90
2021/09/08 00:26:04;;;;;;;2.75;2.55;;;13.30;99.90;;;;;;6080704;23;20403;-84
2021/09/08 00:28:48;;;;;;;3.05;2.85;;;13.30;99.90;;;;;;6081663;23;20392;-88
2021/09/08 00:31:33;;;;;;;4.95;3.33;;;13.30;99.90;;;;;;6060548;23;20432;-88
2021/09/08 00:34:17;;;;;;;3.30;3.00;;;13.40;99.90;;;;;;6121861;23;20368;-89
2021/09/08 00:37:04;;;;;;;2.92;2.72;;;13.30;99.90;;;;;;6066298;23;20360;-89
2021/09/08 00:39:50;;;;;;;3.30;3.00;;;13.20;99.90;;;;;;6084943;23;20375;-84
2021/09/08 00:42:35;;;;;;;2.73;2.53;;;13.20;99.90;;;;;;6101892;23;20375;-88
2021/09/08 00:45:20;;;;;;;3.05;2.85;;;13.20;99.90;;;;;;6123765;23;20483;-90
2021/09/08 00:48:06;;;;;;;2.92;2.72;;;13.20;99.90;;;;;;6082775;23;20376;-89
2021/09/08 00:50:51;;;;;;;3.13;2.80;;;13.10;99.90;;;;;;6063584;23;20392;-87
2021/09/08 00:53:35;;;;;;;2.88;2.67;;;13.10;99.90;;;;;;6084138;23;20622;-86
2021/09/08 00:56:24;;;;;;;2.90;2.60;;;13.00;99.90;;;;;;6105186;23;20360;-87
2021/09/08 00:59:17;;;;;;;2.78;2.58;;;13.00;99.90;;;;;;6088604;23;20388;-89
2021/09/08 01:02:04;;;;;;;2.90;2.70;;;13.00;99.90;;;;;;6101157;23;20360;-87
2021/09/08 01:04:50;;;;;;;3.30;3.00;;;13.00;99.90;;;;;;6067190;23;20375;-91
2021/09/08 01:07:37;;;;;;;3.45;3.17;;;13.00;99.90;;;;;;6088621;23;20367;-89
2021/09/08 01:10:22;;;;;;;3.60;3.30;;;13.00;99.90;;;;;;6087087;23;20379;-91
2021/09/08 01:13:08;;;;;;;2.75;2.55;;;12.90;99.90;;;;;;6148098;23;20367;-89
2021/09/08 01:16:01;;;;;;;3.07;2.70;;;12.90;99.90;;;;;;6069022;23;20376;-89
2021/09/08 01:18:46;;;;;;;2.70;2.50;;;13.00;99.90;;;;;;6126583;23;20355;-87
2021/09/08 01:21:30;;;;;;;2.83;2.63;;;12.80;99.90;;;;;;6066785;23;20424;-86
2021/09/08 01:24:14;;;;;;;3.38;3.13;;;12.90;99.90;;;;;;6067421;23;20368;-86
2021/09/08 01:26:59;;;;;;;4.57;3.50;;;12.80;99.90;;;;;;6086642;23;20397;-87
2021/09/08 01:29:43;;;;;;;3.22;2.92;;;12.70;99.90;;;;;;6106262;23;20363;-89
2021/09/08 01:32:32;;;;;;;2.38;2.17;;;12.80;99.90;;;;;;6065207;23;20387;-87
2021/09/08 01:35:18;;;;;;;2.63;2.43;;;12.60;99.90;;;;;;6086329;23;20364;-88
2021/09/08 01:38:02;;;;;;;2.67;2.47;;;12.70;99.90;;;;;;6086884;23;20351;-88
2021/09/08 01:40:47;;;;;;;2.85;2.65;;;12.70;99.90;;;;;;6083829;23;20372;-86
2021/09/08 01:43:31;;;;;;;3.00;2.70;;;12.70;99.90;;;;;;6065273;23;20372;-88
2021/09/08 01:46:19;;;;;;;2.70;2.50;;;12.70;99.90;;;;;;6065242;23;20400;-89
2021/09/08 01:49:04;;;;;;;2.80;2.60;;;12.70;99.90;;;;;;6084903;23;20388;-86
2021/09/08 01:51:48;;;;;;;3.50;2.90;;;12.70;99.90;;;;;;6084579;23;20388;-89
2021/09/08 01:54:32;;;;;;;3.08;2.65;;;12.60;99.90;;;;;;6125788;23;20404;-89
2021/09/08 01:57:17;;;;;;;2.60;2.40;;;12.60;99.90;;;;;;6125373;23;20384;-87
2021/09/08 02:00:01;;;;;;;2.90;2.70;;;12.60;99.90;;;;;;6083329;23;20356;-86
2021/09/08 02:02:47;;;;;;;2.60;2.40;;;12.60;99.90;;;;;;6084844;23;20384;-87
2021/09/08 02:05:31;;;;;;;2.47;2.33;;;12.60;99.90;;;;;;6104979;23;20388;-86
2021/09/08 02:08:15;;;;;;;2.70;2.50;;;12.50;99.90;;;;;;6084188;23;20384;-86
2021/09/08 02:11:00;;;;;;;2.90;2.63;;;12.50;99.90;;;;;;6085618;23;20384;-88
2021/09/08 02:13:46;;;;;;;2.70;2.50;;;12.40;99.90;;;;;;6067153;23;20427;-88
2021/09/08 02:16:30;;;;;;;2.75;2.55;;;12.40;99.90;;;;;;6085609;23;20388;-90
2021/09/08 02:19:15;;;;;;;3.00;2.70;;;12.40;99.90;;;;;;6125749;23;20383;-89
2021/09/08 02:21:59;;;;;;;3.17;2.55;;;12.40;99.90;;;;;;6106564;23;20372;-88
2021/09/08 02:24:44;;;;;;;2.45;2.35;;;12.40;99.90;;;;;;6106033;23;20368;-87
2021/09/08 02:27:28;;;;;;;3.20;2.90;;;12.40;99.90;;;;;;6063256;23;20384;-87
2021/09/08 02:30:13;;;;;;;2.87;2.63;;;12.30;99.90;;;;;;6063659;23;20457;-87
2021/09/08 02:32:57;;;;;;;2.75;2.55;;;12.30;99.90;;;;;;6064514;23;20388;-88
2021/09/08 02:35:42;;;;;;;2.65;2.30;;;12.30;99.90;;;;;;6085039;23;20352;-87
2021/09/08 02:38:27;;;;;;;3.42;2.58;;;12.30;99.90;;;;;;6126090;23;20384;-87
2021/09/08 02:41:11;;;;;;;2.92;2.50;;;12.30;99.90;;;;;;6085175;23;20453;-85
2021/09/08 02:43:56;;;;;;;3.47;3.05;;;12.40;99.90;;;;;;6065625;23;20407;-87
2021/09/08 02:46:40;;;;;;;2.88;2.67;;;12.20;99.90;;;;;;6111705;23;20396;-87
2021/09/08 02:49:25;;;;;;;3.22;2.92;;;12.20;99.90;;;;;;6086539;23;20363;-88
2021/09/08 02:52:09;;;;;;;2.70;2.50;;;12.20;99.90;;;;;;6065552;23;20445;-89
2021/09/08 02:54:54;;;;;;;2.97;2.77;;;12.20;99.90;;;;;;6104869;23;20383;-86
2021/09/08 02:57:38;;;;;;;3.08;2.83;;;12.20;99.90;;;;;;6125938;23;20380;-86
2021/09/08 03:00:22;;;;;;;2.65;2.30;;;12.20;99.90;;;;;;6065033;23;20391;-87
2021/09/08 03:03:07;;;;;;;2.95;2.75;;;12.20;99.90;;;;;;6127299;23;20376;-89
2021/09/08 03:05:52;;;;;;;2.75;2.55;;;12.10;99.90;;;;;;6065250;23;20384;-85
2021/09/08 03:08:36;;;;;;;3.10;2.80;;;12.10;99.90;;;;;;6126196;23;20395;-87
2021/09/08 03:11:21;;;;;;;2.78;2.58;;;12.00;99.90;;;;;;6085333;23;20360;-86
2021/09/08 03:14:05;;;;;;;3.28;2.92;;;12.00;99.90;;;;;;6147386;23;20395;-85
2021/09/08 03:16:49;;;;;;;2.88;2.67;;;11.90;99.90;;;;;;6104352;23;20413;-88
2021/09/08 03:19:35;;;;;;;3.05;2.85;;;12.00;99.90;;;;;;6063309;23;20399;-85
2021/09/08 03:22:19;;;;;;;2.92;2.72;;;11.90;99.90;;;;;;6064571;23;20499;-86
2021/09/08 03:25:04;;;;;;;2.75;2.55;;;11.90;99.90;;;;;;6124536;23;20352;-88
2021/09/08 03:27:49;;;;;;;2.72;2.53;;;11.90;99.90;;;;;;6084930;23;20930;-88
2021/09/08 03:30:33;;;;;;;2.63;2.42;;;11.90;99.90;;;;;;6102987;23;20372;-86
2021/09/08 03:33:18;;;;;;;3.30;3.00;;;12.00;99.90;;;;;;6068072;23;20539;-89
2021/09/08 03:36:02;;;;;;;2.85;2.65;;;11.90;99.90;;;;;;6098209;23;20400;-87
2021/09/08 03:44:51;;;;;;;2.45;2.35;;;11.70;99.90;;;;;;6183744;23;20381;-80
2021/09/08 03:47:35;;;;;;;3.28;2.97;;;11.60;99.90;;;;;;6078713;23;20378;-83
2021/09/08 03:50:19;;;;;;;2.67;2.47;;;11.60;99.90;;;;;;6079097;23;20426;-83
2021/09/08 03:53:05;;;;;;;2.90;2.58;;;11.60;99.90;;;;;;6100279;23;20407;-83
2021/09/08 03:55:49;;;;;;;2.83;2.63;;;11.60;99.90;;;;;;6092271;23;20362;-83
2021/09/08 03:58:35;;;;;;;3.00;2.70;;;11.60;99.90;;;;;;6142885;23;20366;-83
2021/09/08 04:01:19;;;;;;;2.80;2.60;;;11.70;99.90;;;;;;6125595;23;20437;-85
2021/09/08 04:04:04;;;;;;;3.20;2.85;;;11.60;99.90;;;;;;6097721;23;20420;-83
2021/09/08 04:06:50;;;;;;;3.53;3.03;;;11.60;99.90;;;;;;6108536;23;20362;-81
2021/09/08 04:09:34;;;;;;;4.95;2.90;;;11.60;99.90;;;;;;6069387;23;20362;-84
2021/09/08 04:12:18;;;;;;;3.00;2.70;;;11.60;99.90;;;;;;6087007;23;20383;-82
2021/09/08 04:15:03;;;;;;;3.30;3.00;;;11.60;99.90;;;;;;6074200;23;20370;-84
2021/09/08 04:17:47;;;;;;;2.53;2.38;;;11.60;99.90;;;;;;6109662;23;20429;-81
2021/09/08 04:20:32;;;;;;;3.20;2.92;;;11.60;99.90;;;;;;6072317;23;20436;-85
2021/09/08 04:23:16;;;;;;;2.72;2.50;;;11.60;99.90;;;;;;6113474;23;20369;-84
2021/09/08 04:26:00;;;;;;;3.00;2.80;;;11.50;99.90;;;;;;6076678;23;20361;-89
2021/09/08 04:28:45;;;;;;;3.30;2.43;;;11.60;99.90;;;;;;6129813;23;20370;-81
2021/09/08 04:31:30;;;;;;;2.70;2.50;;;11.60;99.90;;;;;;6143636;23;20378;-86
2021/09/08 04:34:14;;;;;;;2.60;2.40;;;11.70;99.90;;;;;;6100698;23;20375;-84
2021/09/08 04:36:58;;;;;;;3.20;2.92;;;11.60;99.90;;;;;;6110086;23;20433;-82
2021/09/08 04:39:44;;;;;;;3.50;3.20;;;11.50;99.90;;;;;;6086576;23;20373;-82
2021/09/08 04:42:28;;;;;;;2.97;2.77;;;11.50;99.90;;;;;;6076137;23;20700;-85
2021/09/08 04:45:13;;;;;;;2.97;2.78;;;11.50;99.90;;;;;;6095652;23;20390;-81
2021/09/08 04:47:57;;;;;;;3.47;3.17;;;11.50;99.90;;;;;;6096081;23;20387;-83
2021/09/08 04:50:41;;;;;;;3.10;2.80;;;11.50;99.90;;;;;;6105891;23;20370;-84
2021/09/08 04:53:26;;;;;;;3.58;3.28;;;11.50;99.90;;;;;;6080841;23;20463;-84
2021/09/08 04:56:10;;;;;;;3.15;2.95;;;11.50;99.90;;;;;;6099201;23;20386;-84
2021/09/08 04:58:55;;;;;;;4.00;3.45;;;11.50;99.90;;;;;;6117423;23;20393;-82
2021/09/08 05:01:39;;;;;;;2.90;2.70;;;11.50;99.90;;;;;;6100240;23;20366;-83
2021/09/08 05:04:24;;;;;;;3.50;3.20;;;11.50;99.90;;;;;;6101895;23;20457;-86
2021/09/08 05:07:08;;;;;;;3.17;2.85;;;11.60;99.90;;;;;;6099942;23;20378;-84
2021/09/08 05:09:53;;;;;;;3.95;3.65;;;11.60;99.90;;;;;;6079969;23;20362;-85
2021/09/08 05:12:37;;;;;;;2.73;2.53;;;11.60;99.90;;;;;;6084128;23;20386;-86
2021/09/08 05:15:21;;;;;;;3.80;3.35;;;11.70;99.90;;;;;;6099371;23;20362;-81
2021/09/08 05:18:05;;;;;;;3.73;3.43;;;11.70;99.90;;;;;;6110410;23;20429;-81
2021/09/08 05:20:50;;;;;;;3.10;2.80;;;11.70;99.90;;;;;;6105186;23;20389;-80
2021/09/08 05:23:34;;;;;;;3.60;3.28;;;11.80;99.90;;;;;;6071107;23;20437;-80
2021/09/08 05:26:19;;;;;;;3.95;3.55;;;11.80;99.90;;;;;;6110613;23;20453;-81
2021/09/08 05:29:03;;;;;;;4.20;3.80;;;11.90;99.90;;;;;;6111027;23;20378;-81
2021/09/08 05:31:47;;;;;;;3.63;3.33;;;11.90;99.90;;;;;;6069113;23;20373;-81
2021/09/08 05:34:31;;;;;;;3.35;3.05;;;12.00;99.90;;;;;;6111510;23;20699;-81
2021/09/08 05:37:16;;;;;;;4.93;3.38;;;12.10;99.90;;;;;;6111445;23;20706;-81
2021/09/08 05:40:00;;;;;;;4.47;4.07;;;12.20;99.90;;;;;;6110814;23;20383;-85
2021/09/08 05:42:44;;;;;;;4.55;3.88;;;12.30;99.90;;;;;;6090315;23;20393;-81
2021/09/08 05:45:28;;;;;;;4.30;3.90;;;12.40;99.90;;;;;;6070577;23;20382;-82
2021/09/08 05:48:13;;;;;;;4.85;4.05;;;12.50;99.90;;;;;;6090684;23;20386;-81
2021/09/08 05:50:57;;;;;;;5.40;4.20;;;12.60;99.90;;;;;;6091291;23;20755;-81
2021/09/08 05:53:41;;;;;;;4.72;4.20;;;12.80;99.90;;;;;;6071792;23;20393;-81
2021/09/08 05:56:25;;;;;;;4.35;3.95;;;12.90;99.90;;;;;;6071132;23;20434;-81
2021/09/08 05:59:10;;;;;;;4.47;4.03;;;13.00;99.90;;;;;;6091704;23;21347;-84
2021/09/08 06:01:54;;;;;;;4.93;4.47;;;13.10;99.90;;;;;;6097795;23;20418;-87
2021/09/08 06:04:38;;;;;;;4.47;4.10;;;13.20;99.90;;;;;;6105416;23;20361;-83
2021/09/08 06:07:23;;;;;;;5.25;4.03;;;13.30;99.90;;;;;;6100159;23;20437;-85
2021/09/08 06:10:07;;;;;;;4.43;4.03;;;13.40;99.90;;;;;;6097688;23;20421;-84
2021/09/08 06:12:51;;;;;;;4.28;3.85;;;13.50;99.90;;;;;;6098042;23;20422;-82
2021/09/08 06:15:36;;;;;;;5.97;4.47;;;13.70;99.90;;;;;;6116354;23;20489;-82
2021/09/08 06:18:21;;;;;;;5.53;5.03;;;13.90;99.90;;;;;;6096629;23;20394;-81
2021/09/08 06:21:05;;;;;;;5.22;4.72;;;14.00;99.90;;;;;;6074416;23;20434;-81
2021/09/08 06:23:49;;;;;;;5.15;4.70;;;14.20;99.90;;;;;;6096318;23;20379;-84
2021/09/08 06:26:34;;;;;;;5.32;4.40;;;14.30;99.90;;;;;;6095912;23;20377;-87
2021/09/08 06:29:18;;;;;;;5.07;4.63;;;14.40;99.90;;;;;;6076964;23;20444;-86
2021/09/08 06:32:03;;;;;;;4.82;4.40;;;14.50;99.90;;;;;;6116779;23;20442;-82
2021/09/08 06:34:48;;;;;;;5.18;4.20;;;14.70;99.90;;;;;;6075284;23;20866;-82
2021/09/08 06:37:32;;;;;;;4.50;4.10;;;14.80;99.90;;;;;;6096888;23;20715;-81
2021/09/08 06:40:16;;;;;;;5.55;4.97;;;15.00;99.90;;;;;;6096368;23;21094;-82
2021/09/08 06:43:01;;;;;;;5.68;5.13;;;15.20;99.90;;;;;;6076776;23;20374;-82
2021/09/08 06:45:45;;;;;;;5.35;4.85;;;15.10;99.90;;;;;;6117473;23;20366;-82
2021/09/08 06:48:29;;;;;;;5.07;4.68;;;15.20;99.90;;;;;;6097760;23;20390;-85
2021/09/08 06:51:14;;;;;;;5.35;4.85;;;15.30;99.90;;;;;;6076344;23;20417;-87
2021/09/08 06:53:58;;;;;;;5.53;5.03;;;15.40;99.90;;;;;;6076707;23;20692;-87
2021/09/08 06:56:42;;;;;;;5.25;4.40;;;15.50;99.90;;;;;;6075292;23;20366;-85
2021/09/08 06:59:27;;;;;;;5.65;4.93;;;15.60;99.90;;;;;;6094584;23;20405;-89
2021/09/08 07:02:11;;;;;;;5.18;4.70;;;15.70;99.90;;;;;;6096495;23;20402;-81
2021/09/08 07:04:57;;;;;;;5.30;4.40;;;15.70;99.90;;;;;;6094868;23;20418;-83
2021/09/08 07:07:41;;;;;;;5.47;4.97;;;15.70;99.90;;;;;;6076194;23;20462;-82
2021/09/08 07:10:26;;;;;;;4.93;4.53;;;15.80;99.90;;;;;;6074293;23;20402;-83
2021/09/08 07:13:10;;;;;;;4.75;4.32;;;15.70;99.90;;;;;;6093220;23;20461;-82
2021/09/08 07:15:54;;;;;;;6.30;5.15;;;15.70;99.90;;;;;;6083954;23;21112;-83
2021/09/08 07:18:38;;;;;;;6.68;5.55;;;15.80;99.90;;;;;;6103944;23;20374;-86
2021/09/08 07:21:23;;;;;;;5.20;4.78;;;15.80;99.90;;;;;;6099628;23;20406;-82
2021/09/08 07:24:07;;;;;;;5.68;5.18;;;15.90;99.90;;;;;;6139985;23;20377;-84
2021/09/08 07:26:56;;;;;;;5.33;4.77;;;15.90;99.90;;;;;;6077241;23;20394;-86
2021/09/08 07:29:40;;;;;;;5.43;4.80;;;16.00;99.90;;;;;;6118494;23;20723;-84
2021/09/08 07:32:25;;;;;;;7.60;6.80;;;16.10;99.90;;;;;;6099193;23;20370;-81
2021/09/08 07:35:10;;;;;;;8.52;6.15;;;16.30;99.90;;;;;;6095648;23;20880;-83
2021/09/08 07:37:57;;;;;;;7.90;6.25;;;16.40;99.90;;;;;;6095992;23;20712;-86
2021/09/08 07:40:42;;;;;;;5.78;5.28;;;16.60;99.90;;;;;;6097504;23;20402;-84
2021/09/08 07:43:26;;;;;;;8.15;6.35;;;16.90;99.90;;;;;;6077372;23;20390;-83
2021/09/08 07:46:11;;;;;;;5.97;5.38;;;17.00;99.90;;;;;;6075043;23;20394;-87
2021/09/08 07:48:55;;;;;;;6.95;6.13;;;17.20;99.90;;;;;;6096703;23;20370;-83
2021/09/08 07:51:40;;;;;;;5.53;5.03;;;17.40;99.90;;;;;;6097540;23;20545;-83
2021/09/08 07:54:24;;;;;;;5.43;5.03;;;17.70;99.90;;;;;;6097392;23;20406;-84
2021/09/08 07:57:08;;;;;;;5.82;5.30;;;18.00;99.90;;;;;;6075538;23;20442;-84
2021/09/08 07:59:53;;;;;;;5.55;4.80;;;18.10;99.90;;;;;;6120127;23;20715;-82
2021/09/08 08:02:49;;;;;;;5.25;4.75;;;18.30;99.90;;;;;;6098698;23;20433;-84
2021/09/08 08:05:33;;;;;;;5.18;4.65;;;18.50;99.90;;;;;;6098963;23;20381;-83
2021/09/08 08:08:18;;;;;;;4.90;4.25;;;18.70;99.90;;;;;;6078247;23;20370;-83
2021/09/08 08:11:02;;;;;;;4.53;4.13;;;18.90;99.90;;;;;;6097405;23;20370;-82
2021/09/08 08:13:47;;;;;;;4.85;4.45;;;19.10;99.90;;;;;;6079140;23;20362;-84
2021/09/08 08:16:32;;;;;;;5.63;4.22;;;19.20;99.90;;;;;;6076983;23;20366;-83
2021/09/08 08:19:16;;;;;;;7.23;5.07;;;19.40;99.90;;;;;;6075884;23;20382;-85
2021/09/08 08:22:01;;;;;;;4.47;4.07;;;19.50;99.90;;;;;;6077454;23;20632;-85
2021/09/08 08:24:45;;;;;;;4.95;4.30;;;19.60;99.90;;;;;;6076428;23;20370;-82
2021/09/08 08:27:30;;;;;;;5.47;4.40;;;19.70;99.90;;;;;;6086309;23;20374;-89
2021/09/08 08:30:16;;;;;;;4.50;4.10;;;19.80;99.90;;;;;;6084012;23;20469;-83
2021/09/08 08:33:01;;;;;;;4.60;4.20;;;19.90;99.90;;;;;;6080355;23;20377;-89
2021/09/08 08:35:45;;;;;;;5.35;4.50;;;20.10;99.90;;;;;;6078464;23;20433;-81
2021/09/08 08:38:29;;;;;;;4.40;3.97;;;20.10;99.90;;;;;;6098121;23;20378;-85
2021/09/08 08:41:14;;;;;;;4.82;4.38;;;20.20;99.90;;;;;;6098405;23;20374;-84
2021/09/08 08:43:58;;;;;;;3.95;3.65;;;20.20;99.90;;;;;;6098281;23;20437;-85
2021/09/08 08:46:42;;;;;;;4.22;3.78;;;20.40;99.90;;;;;;6079201;23;20427;-84
2021/09/08 08:49:27;;;;;;;4.10;3.80;;;20.40;99.90;;;;;;6080012;23;20500;-88
2021/09/08 08:52:11;;;;;;;4.45;3.80;;;20.70;99.90;;;;;;6080944;23;20377;-83
2021/09/08 08:54:56;;;;;;;5.35;4.45;;;20.80;99.90;;;;;;6078308;23;20418;-82
2021/09/08 08:57:41;;;;;;;4.38;3.97;;;20.90;99.90;;;;;;6080090;23;20968;-86
2021/09/08 09:00:25;;;;;;;4.73;4.20;;;21.00;99.90;;;;;;6098775;23;20382;-86
2021/09/08 09:03:22;;;;;;;4.17;3.87;;;21.00;99.90;;;;;;6078777;23;20732;-86
2021/09/08 09:06:07;;;;;;;5.57;4.15;;;21.00;99.90;;;;;;6101060;23;20370;-84
2021/09/08 09:09:03;;;;;;;4.82;4.22;;;21.10;99.90;;;;;;6116866;23;20414;-83
2021/09/08 09:11:48;;;;;;;4.60;4.07;;;21.20;99.90;;;;;;6098368;23;20398;-86
2021/09/08 09:14:32;;;;;;;4.95;4.25;;;21.30;99.90;;;;;;6099186;23;20370;-85
2021/09/08 09:17:18;;;;;;;7.68;5.10;;;21.30;99.90;;;;;;6079183;23;20370;-83
2021/09/08 09:20:10;;;;;;;4.80;3.97;;;21.50;99.90;;;;;;6099774;23;20373;-86
2021/09/08 09:22:55;;;;;;;4.05;3.70;;;21.60;99.90;;;;;;6079141;23;20466;-86
2021/09/08 09:25:39;;;;;;;4.07;3.67;;;21.70;99.90;;;;;;6076506;23;20858;-86
2021/09/08 09:28:24;;;;;;;4.15;3.75;;;21.90;99.90;;;;;;6100970;23;20426;-85
2021/09/08 09:31:17;;;;;;;4.13;3.80;;;22.10;99.90;;;;;;6082794;23;20362;-87
2021/09/08 09:34:01;;;;;;;3.33;3.03;;;22.30;99.90;;;;;;6083930;23;20426;-83
2021/09/08 09:36:46;;;;;;;4.27;3.77;;;22.30;99.90;;;;;;6084611;23;20704;-89
2021/09/08 09:39:32;;;;;;;3.47;3.17;;;22.40;99.90;;;;;;6090528;23;20410;-89
2021/09/08 09:42:18;;;;;;;4.97;3.60;;;22.60;99.90;;;;;;6108437;23;20447;-83
2021/09/08 09:45:06;;;;;;;3.90;3.50;;;22.70;99.90;;;;;;6090589;23;20394;-86
2021/09/08 09:47:50;;;;;;;3.83;3.50;;;22.90;99.90;;;;;;6090287;23;20390;-87
2021/09/08 09:50:34;;;;;;;4.10;3.70;;;23.10;99.90;;;;;;6102559;23;20435;-87
2021/09/08 09:53:19;;;;;;;5.20;4.07;;;23.20;99.90;;;;;;6099913;23;20405;-85
2021/09/08 09:56:03;;;;;;;4.60;3.80;;;23.30;99.90;;;;;;6082364;23;20389;-85
2021/09/08 09:58:48;;;;;;;4.03;3.42;;;23.50;99.90;;;;;;6084026;23;20359;-86
2021/09/08 10:01:32;;;;;;;4.22;3.83;;;23.70;99.90;;;;;;6084519;23;20470;-92
2021/09/08 10:04:17;;;;;;;4.13;3.57;;;23.90;99.90;;;;;;6107138;23;20367;-89
2021/09/08 10:07:02;;;;;;;3.83;3.33;;;24.20;99.90;;;;;;6086034;23;20398;-86
2021/09/08 10:09:51;;;;;;;4.97;3.47;;;24.50;99.90;;;;;;6086102;23;20431;-88
2021/09/08 10:12:38;;;;;;;4.32;3.92;;;24.80;99.90;;;;;;6106790;23;20370;-91
2021/09/08 10:15:22;;;;;;;3.70;3.40;;;25.00;99.90;;;;;;6104789;23;20408;-85
2021/09/08 10:18:09;;;;;;;3.50;3.20;;;25.20;99.90;;;;;;6106770;23;20660;-88
2021/09/08 10:21:00;;;;;;;3.88;3.58;;;25.30;99.90;;;;;;6088099;23;20386;-93
2021/09/08 10:23:53;;;;;;;3.85;3.50;;;25.30;99.90;;;;;;6126664;23;20375;-86
2021/09/08 10:26:37;;;;;;;3.85;3.55;;;25.60;99.90;;;;;;6085062;23;20382;-87
2021/09/08 10:29:28;;;;;;;4.05;3.65;;;25.70;99.90;;;;;;6107712;23;20373;-88
2021/09/08 10:32:13;;;;;;;3.70;3.38;;;25.80;99.90;;;;;;6106909;23;20370;-87
2021/09/08 10:34:59;;;;;;;3.25;2.97;;;26.10;99.90;;;;;;6112838;23;20598;-88
2021/09/08 10:37:46;;;;;;;3.50;2.97;;;26.60;99.90;;;;;;6110235;23;20366;-82
2021/09/08 10:40:33;;;;;;;3.85;3.47;;;26.80;99.90;;;;;;6151565;23;20414;-90
2021/09/08 10:43:35;;;;;;;3.40;3.10;;;26.80;99.90;;;;;;6110804;23;20792;-89
2021/09/08 10:46:22;;;;;;;4.77;3.70;;;26.80;99.90;;;;;;6132862;23;20394;-85
2021/09/08 10:49:11;;;;;;;3.55;3.25;;;27.20;99.90;;;;;;6172731;23;20411;-91
2021/09/08 10:52:07;;;;;;;3.05;2.83;;;27.40;99.90;;;;;;6135002;23;20382;-88
2021/09/08 11:52:57;;;;;;;3.47;3.20;;;31.80;90.90;;;;;;6157403;23;20405;-79
2021/09/08 11:56:41;;;;;;;3.08;2.67;;;31.60;90.90;;;;;;6093981;23;20384;-80
2021/09/08 11:59:30;;;;;;;3.85;3.55;;;31.40;87.60;;;;;;6101036;23;20399;-80
2021/09/08 12:02:19;;;;;;;3.77;3.47;;;31.60;90.30;;;;;;6058815;23;20861;-81
2021/09/08 12:06:02;;;;;;;3.53;3.22;;;31.90;89.10;;;;;;6115063;23;20396;-79
2021/09/08 12:13:38;;;;;;;2.97;2.78;;;32.20;85.60;;;;;;6130297;23;20371;-79
2021/09/08 12:17:31;;;;;;;3.22;2.92;;;32.40;86.20;;;;;;6133360;23;20403;-81
2021/09/08 12:21:52;;;;;;;5.30;4.03;;;32.40;82.40;;;;;;6146863;23;20392;-80
2021/09/08 12:25:15;;;;;;;5.38;3.40;;;33.00;83.30;;;;;;6142779;23;20404;-81
2021/09/08 12:28:06;;;;;;;3.22;2.92;;;33.00;81.10;;;;;;6101628;23;20388;-80
2021/09/08 12:31:19;;;;;;;3.00;2.80;;;33.10;79.70;;;;;;6077892;23;20379;-80
2021/09/08 12:34:06;;;;;;;3.70;3.30;;;32.80;80.80;;;;;;6099861;23;20432;-79
2021/09/08 12:37:07;;;;;;;3.60;3.25;;;33.10;82.60;;;;;;6067094;23;20419;-80
2021/09/08 12:39:54;;;;;;;3.67;3.38;;;33.20;80.90;;;;;;6108675;23;20467;-80
2021/09/08 12:43:29;;;;;;;4.97;3.40;;;32.90;80.20;;;;;;6073644;23;20368;-80
2021/09/08 12:46:16;;;;;;;3.60;3.17;;;32.60;79.80;;;;;;6119656;23;20387;-80
2021/09/08 12:49:04;;;;;;;4.30;3.75;;;32.80;76.20;;;;;;6124891;23;20380;-81
2021/09/08 12:51:50;;;;;;;3.83;3.13;;;32.60;75.80;;;;;;6069379;23;20379;-80
2021/09/08 12:54:37;;;;;;;3.20;2.90;;;32.50;75.60;;;;;;6099839;23;20798;-79
2021/09/08 12:57:22;;;;;;;3.60;3.30;;;33.00;76.30;;;;;;6115325;23;20387;-80
2021/09/08 13:00:29;;;;;;;3.53;3.17;;;32.80;73.00;;;;;;6105505;23;20400;-80
2021/09/08 13:03:18;;;;;;;3.80;3.50;;;32.80;75.70;;;;;;6074658;23;20383;-79
2021/09/08 13:06:10;;;;;;;3.60;3.30;;;33.20;72.90;;;;;;6107187;23;20399;-81
2021/09/08 13:09:24;;;;;;;3.63;3.13;;;33.70;74.30;;;;;;6114879;23;20870;-80
2021/09/08 13:12:10;;;;;;;4.22;3.40;;;33.80;75.60;;;;;;6072129;23;20381;-80
2021/09/08 13:15:23;;;;;;;3.85;3.45;;;33.80;72.50;;;;;;6093213;23;20446;-80
2021/09/08 13:18:17;;;;;;;3.95;3.40;;;33.40;73.80;;;;;;6076156;23;20368;-79
2021/09/08 13:21:08;;;;;;;4.78;3.38;;;33.30;72.30;;;;;;6085238;23;20379;-80
2021/09/08 13:24:15;;;;;;;3.90;3.50;;;33.60;74.10;;;;;;6062445;23;20396;-81
2021/09/08 13:27:07;;;;;;;3.90;3.30;;;34.60;74.30;;;;;;6098312;23;20801;-80
2021/09/08 13:29:59;;;;;;;3.30;3.00;;;34.80;67.70;;;;;;6075575;23;20379;-80
2021/09/08 13:32:49;;;;;;;3.50;3.20;;;34.90;68.60;;;;;;6035234;23;20375;-79
2021/09/08 13:35:36;;;;;;;5.47;3.47;;;35.40;66.80;;;;;;6068673;23;20367;-80
2021/09/08 13:38:22;;;;;;;3.65;3.20;;;35.70;68.30;;;;;;6077158;23;20369;-79
2021/09/08 13:41:10;;;;;;;3.30;3.00;;;36.10;68.20;;;;;;6073310;23;21068;-80
2021/09/08 13:43:55;;;;;;;3.85;3.28;;;36.60;66.00;;;;;;6094141;23;20958;-79
2021/09/08 13:46:39;;;;;;;3.00;2.80;;;36.50;63.10;;;;;;6078344;23;20907;-81
2021/09/08 13:49:24;;;;;;;3.17;2.72;;;36.50;63.80;;;;;;6058491;23;20380;-80
2021/09/08 13:52:08;;;;;;;3.53;3.22;;;36.70;62.10;;;;;;6076424;23;20372;-78
2021/09/08 13:54:54;;;;;;;2.80;2.60;;;35.20;60.00;;;;;;6076489;23;20403;-78
2021/09/08 13:57:38;;;;;;;3.83;3.17;;;34.00;63.20;;;;;;6076846;23;20375;-79
2021/09/08 14:00:22;;;;;;;3.22;2.92;;;33.80;67.40;;;;;;6076998;23;20440;-79
2021/09/08 14:03:06;;;;;;;3.17;2.90;;;34.20;66.70;;;;;;6076573;23;20424;-80
2021/09/08 14:05:51;;;;;;;2.78;2.58;;;34.30;63.50;;;;;;6057400;23;20388;-79
2021/09/08 14:08:36;;;;;;;3.45;3.15;;;34.50;63.00;;;;;;6077382;23;20372;-80
2021/09/08 14:11:20;;;;;;;3.22;2.70;;;34.90;64.80;;;;;;6095946;23;20503;-79
2021/09/08 14:14:04;;;;;;;2.67;2.47;;;35.30;62.70;;;;;;6077572;23;20496;-79
2021/09/08 14:16:48;;;;;;;3.13;2.85;;;35.30;64.60;;;;;;6056489;23;20374;-80
2021/09/08 14:19:33;;;;;;;2.77;2.57;;;35.20;62.30;;;;;;6098912;23;20481;-80
2021/09/08 14:22:17;;;;;;;2.58;2.38;;;34.90;62.60;;;;;;6057239;23;20368;-79
2021/09/08 14:25:02;;;;;;;2.70;2.50;;;35.20;64.10;;;;;;6097132;23;20687;-78
2021/09/08 14:27:46;;;;;;;2.47;2.28;;;35.30;62.60;;;;;;6079143;23;20388;-81
2021/09/08 14:30:30;;;;;;;2.83;2.53;;;34.80;58.30;;;;;;6057831;23;20372;-80
2021/09/08 14:33:15;;;;;;;2.35;2.20;;;34.40;58.20;;;;;;6077875;23;20368;-80
2021/09/08 14:36:00;;;;;;;3.25;2.95;;;34.30;60.70;;;;;;6077687;23;20420;-80
2021/09/08 14:38:44;;;;;;;2.60;2.40;;;34.70;58.70;;;;;;6081107;23;20841;-79
2021/09/08 14:41:28;;;;;;;5.45;2.35;;;34.90;59.20;;;;;;6099320;23;20388;-80
2021/09/08 14:44:13;;;;;;;2.10;2.00;;;35.00;59.00;;;;;;6085037;23;20388;-80
2021/09/08 14:46:58;;;;;;;2.50;2.30;;;35.00;57.70;;;;;;6084001;23;20392;-80
2021/09/08 14:49:42;;;;;;;4.75;2.53;;;34.90;57.40;;;;;;6059797;23;20445;-79
2021/09/08 14:52:27;;;;;;;2.17;1.98;;;34.10;57.10;;;;;;6097810;23;20432;-79
2021/09/08 14:55:11;;;;;;;2.03;1.93;;;33.30;58.90;;;;;;6076419;23;20455;-79
2021/09/08 14:57:56;;;;;;;1.90;1.80;;;32.70;61.20;;;;;;6077582;23;20436;-80
2021/09/08 15:00:41;;;;;;;2.50;2.30;;;32.50;62.80;;;;;;6096363;23;20932;-80
2021/09/08 15:03:26;;;;;;;1.60;1.50;;;31.90;60.30;;;;;;6078167;23;20863;-80
2021/09/08 15:06:10;;;;;;;2.22;2.05;;;31.70;61.90;;;;;;6074090;23;20395;-79
2021/09/08 15:08:54;;;;;;;2.65;2.45;;;31.50;62.10;;;;;;6096519;23;20492;-79
2021/09/08 15:11:38;;;;;;;3.03;2.38;;;30.80;60.80;;;;;;6095861;23;20869;-79
2021/09/08 15:14:24;;;;;;;2.60;2.40;;;30.10;63.30;;;;;;6075651;23;20376;-80
2021/09/08 15:17:09;;;;;;;2.75;2.30;;;29.80;65.10;;;;;;6075592;23;20370;-78
2021/09/08 15:19:53;;;;;;;2.47;2.27;;;29.60;65.80;;;;;;6052738;23;20464;-80
2021/09/08 15:22:38;;;;;;;4.97;3.22;;;29.20;64.50;;;;;;6078067;23;20380;-78
2021/09/08 15:25:24;;;;;;;2.80;2.60;;;29.00;67.70;;;;;;6114127;23;20982;-81
2021/09/08 15:28:08;;;;;;;2.58;2.30;;;28.90;68.10;;;;;;6092882;23;20376;-81
2021/09/08 15:30:52;;;;;;;2.08;1.95;;;28.80;67.60;;;;;;6086384;23;20408;-81
2021/09/08 15:33:37;;;;;;;2.17;2.00;;;28.60;67.40;;;;;;6061570;23;20368;-78
2021/09/08 15:36:21;;;;;;;2.80;2.60;;;28.20;66.20;;;;;;6095607;23;20371;-80
2021/09/08 15:39:06;;;;;;;2.58;2.38;;;28.10;67.10;;;;;;6056898;23;20439;-82
2021/09/08 15:41:52;;;;;;;2.57;2.37;;;28.10;66.80;;;;;;6076071;23;20383;-80